Latest Coastal Weather Observations for Broome

IDW60701

Issued at 10:13 pm WST Friday 20 October 2017 (issued every 10 minutes, with the page automatically refreshed every 10 minutes)

About coastal observations | Map of coastal stations | Coastal observations for WA | Marine services | Other Formats
Station Details ID: 003003 Name: BROOME AIRPORT Lat: -17.95 Lon: 122.24 Height: 7.42 m
Data from the previous 72 hours. | See also: Recent months at Broome
Date/Time
WST
Temp
°C
Wind Pressure Rain since
9am
mm
Weather Cloud Vis
km
Sea
Height
m
Swell
Dir  Spd
kts
Gust
kts
hPa Trend Height
m
Period
s
Dir
20/10:00pm 28.1 NW 6 11 1011.2 - 0.0 - Partly cloudy 10 - - - -
20/09:30pm 28.2 NW 6 8 1011.1 - 0.0 - Partly cloudy 10 - - - -
20/09:00pm 28.4 NW 6 9 1011.1 - 0.0 - Partly cloudy 10 - - - -
20/08:30pm 28.6 NW 8 11 1010.9 - 0.0 - - 10 - - - -
20/08:00pm 28.9 NNW 9 13 1010.6 - 0.0 - - 10 - - - -
20/07:30pm 29.2 NW 9 14 1010.3 - 0.0 - - 10 - - - -
20/07:00pm 29.5 NW 9 13 1009.9 - 0.0 - - 10 - - - -
20/06:30pm 29.2 NW 11 18 1009.2 - 0.0 - - 10 - - - -
20/06:00pm 29.1 NW 11 15 1008.9 - 0.0 - Partly cloudy 10 - - - -
20/05:30pm 29.6 WNW 12 16 1008.5 - 0.0 - - 10 - - - -
20/05:00pm 30.3 NW 13 17 1008.2 - 0.0 - - 10 - - - -
20/04:30pm 30.7 NW 15 21 1008.1 - 0.0 - - 10 - - - -
20/04:00pm 31.5 WNW 13 19 1007.9 - 0.0 - - 10 - - - -
20/03:30pm 31.8 WNW 13 18 1007.8 - 0.0 - Mostly clear 10 - - - -
20/03:00pm 31.5 WNW 13 18 1007.9 - 0.0 - Mostly clear 10 - - - -
20/02:30pm 32.4 NW 11 15 1008.0 - 0.0 - Mostly clear 10 - - - -
20/02:00pm 33.5 NW 11 17 1008.0 - 0.0 - Mostly clear 10 - - - -
20/01:30pm 32.9 WNW 12 17 1008.5 - 0.0 - Mostly clear 10 - - - -
20/01:00pm 33.4 WNW 10 15 1008.9 - 0.0 - Mostly clear 10 - - - -
20/12:30pm 32.7 WNW 13 18 1008.9 - 0.0 - Mostly clear 10 - - - -
20/12:00pm 35.2 NW 11 15 1009.0 - 0.0 - - 10 - - - -
20/11:52am 35.4 NNW 10 15 1009.1 - 0.0 - - 10 - - - -
20/11:30am 40.4 NE 12 16 1009.2 - 0.0 - - 10 - - - -
20/11:00am 38.7 NE 10 15 1009.7 - 0.0 - - 10 - - - -
20/10:30am 37.6 ENE 10 15 1010.1 - 0.0 - - 10 - - - -
20/10:00am 36.4 ENE 10 16 1010.4 - 0.0 - - 10 - - - -
20/09:30am 34.9 SE 11 15 1010.6 - 0.0 - - 10 - - - -
20/09:00am 33.3 SE 8 11 1010.7 - 0.0 - - 10 - - - -
20/08:30am 32.7 E 6 9 1010.8 - 0.0 - - 10 - - - -
20/08:00am 30.6 ENE 7 9 1010.8 - 0.0 - - 10 - - - -
20/07:30am 29.0 ENE 9 11 1010.8 - 0.0 - - 10 - - - -
20/07:00am 28.0 ENE 9 12 1010.4 - 0.0 - - 10 - - - -
20/06:30am 26.8 ENE 7 9 1010.1 - 0.0 - - 10 - - - -
20/06:00am 26.0 ENE 7 10 1009.5 - 0.0 - Mostly cloudy 10 - - - -
20/05:30am 25.1 ENE 7 8 1008.8 - 0.0 - - 10 - - - -
20/05:00am 25.5 ENE 8 11 1008.4 - 0.0 - - 10 - - - -
20/04:30am 27.2 ESE 6 8 1007.8 - 0.0 - - 10 - - - -
20/04:00am 26.9 ESE 6 8 1007.4 - 0.0 - - 10 - - - -
20/03:30am 27.8 ESE 7 9 1007.1 - 0.0 - - 10 - - - -
20/03:00am 29.6 ESE 10 14 1006.8 - 0.0 - Mostly clear 10 - - - -
20/02:30am 30.2 ESE 8 11 1006.5 - 0.0 - - 10 - - - -
20/02:00am 30.4 ESE 6 8 1006.6 - 0.0 - - 10 - - - -
20/01:30am 31.8 SSE 6 7 1006.5 - 0.0 - - 10 - - - -
20/01:00am 33.2 S 7 10 1006.5 - 0.0 - - 10 - - - -
20/12:30am 34.5 S 12 17 1006.9 - 0.0 - - 10 - - - -
20/12:00am 33.5 SSW 10 14 1006.8 - 0.0 - Cloudy 10 - - - -
 
Date/Time
WST
Temp
°C
Wind Pressure Rain since
9am
mm
Weather Cloud Vis
km
Sea
Height
m
Swell
Dir  Spd
kts
Gust
kts
hPa Trend Height
m
Period
s
Dir
19/11:30pm 32.2 SSW 10 15 1006.9 - 0.0 - - 10 - - - -
19/11:00pm 31.9 SW 7 8 1007.0 - 0.0 - - 10 - - - -
19/10:30pm 32.1 SW 7 9 1007.3 - 0.0 - - 10 - - - -
19/10:00pm 32.5 SW 9 12 1007.4 - 0.0 - - 10 - - - -
19/09:30pm 32.6 SW 10 13 1007.5 - 0.0 - - 10 - - - -
19/09:00pm 32.9 SW 10 15 1007.4 - 0.0 - Mostly cloudy 10 - - - -
19/08:30pm 33.4 SSW 12 18 1007.2 - 0.0 - - 10 - - - -
19/08:00pm 33.5 SW 15 21 1006.9 - 0.0 - - 10 - - - -
19/07:30pm 33.9 SW 16 21 1006.4 - 0.0 - - 10 - - - -
19/07:00pm 33.7 SW 16 22 1006.1 - 0.0 - - 10 - - - -
19/06:30pm 34.4 SW 17 23 1005.6 - 0.0 - - 10 - - - -
19/06:00pm 34.7 SW 17 21 1005.2 - 0.0 - Mostly clear 10 - - - -
19/05:30pm 35.6 SW 16 23 1004.9 - 0.0 - - 10 - - - -
19/05:00pm 36.4 WSW 14 20 1004.6 - 0.0 - - 10 - - - -
19/04:30pm 37.0 SW 16 20 1004.4 - 0.0 - - 10 - - - -
19/04:00pm 38.2 WSW 15 20 1004.2 - 0.0 - - 10 - - - -
19/03:30pm 38.1 WSW 13 19 1004.2 - 0.0 - - 10 - - - -
19/03:00pm 38.5 WSW 14 19 1004.4 - 0.0 - Mostly clear 10 - - - -
19/02:30pm 38.1 WSW 13 18 1004.5 - 0.0 - - 10 - - - -
19/02:00pm 37.8 WSW 13 17 1004.8 - 0.0 - - 10 - - - -
19/01:30pm 38.1 W 10 14 1005.1 - 0.0 - - 10 - - - -
19/01:00pm 38.7 W 11 14 1005.4 - 0.0 - - 10 - - - -
19/12:30pm 40.5 WSW 9 14 1005.9 - 0.0 - - 10 - - - -
19/12:00pm 40.9 S 6 8 1006.5 - 0.0 - - 10 - - - -
19/11:30am 41.3 S 7 11 1006.8 - 0.0 - - 10 - - - -
19/11:00am 39.4 SSE 7 10 1007.2 - 0.0 - - 10 - - - -
19/10:30am 39.0 SE 9 13 1007.5 - 0.0 - - 10 - - - -
19/10:00am 38.1 SE 9 13 1007.9 - 0.0 - - 10 - - - -
19/09:30am 36.6 SE 7 9 1008.0 - 0.0 - - 10 - - - -
19/09:00am 34.3 SE 7 11 1008.1 - 0.0 Fine - 10 - - - -
19/08:30am 31.5 SE 7 9 1008.4 - - - - 10 - - - -
19/08:00am 31.3 SE 9 11 1008.3 - 0.0 - - 10 - - - -
19/07:30am 30.5 SSE 8 13 1008.2 - 0.0 - - 10 - - - -
19/07:00am 30.0 SSE 7 11 1008.1 - - - - 10 - - - -
19/06:30am 29.1 S 7 9 1007.9 - - - - 10 - - - -
19/06:00am 29.5 S 7 11 1007.8 - - - - 10 - - - -
19/05:30am 28.7 SSW 6 11 1007.7 - - - - 10 - - - -
19/05:00am 27.7 SW 6 9 1007.6 - - - - 10 - - - -
19/04:30am 27.5 SW 7 10 1007.2 - - - - 10 - - - -
19/04:00am 27.5 SSW 6 9 1007.0 - - - - 10 - - - -
19/03:30am 27.5 SW 8 12 1006.8 - - - - 10 - - - -
19/03:00am 27.5 SW 8 11 1006.7 - 0.0 - Mostly clear 10 - - - -
19/02:30am 27.5 SW 9 12 1006.7 - - - - 10 - - - -
19/02:00am 27.5 SW 8 11 1006.8 - - - - 10 - - - -
19/01:30am 27.6 SW 7 12 1007.1 - - - - 10 - - - -
19/01:00am 27.7 SW 9 13 1007.3 - - - - 10 - - - -
19/12:30am 27.6 SW 7 10 1007.3 - - - - 10 - - - -
19/12:00am 27.5 SW 8 11 1007.6 - - - Mostly clear 10 - - - -
 
Date/Time
WST
Temp
°C
Wind Pressure Rain since
9am
mm
Weather Cloud Vis
km
Sea
Height
m
Swell
Dir  Spd
kts
Gust
kts
hPa Trend Height
m
Period
s
Dir
18/11:30pm 27.4 WSW 7 10 1007.8 - - - - 10 - - - -
18/11:00pm 27.5 SW 8 11 1008.4 - - - - 10 - - - -
18/10:30pm 27.7 WSW 9 11 1008.6 - - - - 10 - - - -
18/10:00pm 27.7 WSW 9 10 1008.8 - - - - 10 - - - -
18/09:30pm 27.7 WSW 9 11 1008.9 - - - - 10 - - - -
18/09:00pm 27.7 WSW 8 10 1009.0 - - - - 10 - - - -
18/08:30pm 27.9 WSW 6 8 1008.9 - - - - 10 - - - -
18/08:00pm 27.7 W 6 8 1008.6 - - - - 10 - - - -
18/03:00pm 30.7 W 14 19 1006.4 - 0.0 - - 10 - - - -
18/02:30pm 30.3 W 14 19 1006.4 - 0.0 - - 10 - - - -
18/02:00pm 31.7 W 13 18 1006.4 - 0.0 - - 10 - - - -
18/01:30pm 30.3 W 14 18 1006.8 - 0.0 - - 10 - - - -
18/01:00pm 31.3 W 12 16 1007.1 - 0.0 - - 10 - - - -
18/12:30pm 30.9 W 12 17 1007.5 - 0.0 - - 10 - - - -
18/12:00pm 31.7 W 11 14 1008.0 - 0.0 - - 10 - - - -
18/11:30am 30.9 W 11 15 1008.3 - 0.0 - - 10 - - - -
18/11:00am 31.8 W 11 15 1008.6 - 0.0 - - 10 - - - -
18/10:30am 31.1 W 9 13 1009.0 - 0.0 - - 10 - - - -
18/10:00am 30.9 SW 9 13 1009.3 - 0.0 - - 10 - - - -
18/09:30am 30.3 WSW 10 15 1009.5 - 0.0 - - 10 - - - -
18/09:00am 30.4 WSW 10 14 1009.7 - 0.0 Fine - 10 - - - -
18/08:30am 30.0 SW 11 15 1009.7 - 0.0 - - 10 - - - -
18/08:00am 29.8 SW 11 13 1009.5 - 0.0 - - 10 - - - -
18/07:30am 28.9 SSW 9 12 1009.2 - 0.0 - - 10 - - - -
18/07:00am 28.5 SSW 10 15 1009.1 - 0.0 - - 10 - - - -
18/06:30am 27.7 SW 8 13 1008.7 - 0.0 - - 10 - - - -
18/06:00am 26.9 SW 8 10 1008.5 - 0.0 - - 10 - - - -
18/05:30am 26.5 SW 9 11 1008.4 - 0.0 - - 10 - - - -
18/05:00am 26.5 SW 9 12 1008.1 - 0.0 - - 10 - - - -
18/04:30am 26.5 WSW 10 14 1007.9 - 0.0 - - 10 - - - -
18/04:00am 26.6 SW 10 13 1007.5 - 0.0 - - 10 - - - -
18/03:30am 26.7 WSW 10 13 1007.3 - 0.0 - - 10 - - - -
18/03:00am 26.7 WSW 10 14 1007.1 - 0.0 - - 10 - - - -
18/02:30am 26.7 WSW 10 15 1006.9 - 0.0 - - 10 - - - -
18/02:00am 26.8 WSW 11 15 1007.0 - 0.0 - - 10 - - - -
18/01:30am 26.7 WSW 9 11 1007.1 - 0.0 - - 10 - - - -
18/01:00am 26.8 WSW 9 12 1007.5 - 0.0 - - 10 - - - -
18/12:30am 26.9 WSW 9 12 1007.8 - 0.0 - - 10 - - - -
18/12:00am 26.9 WSW 9 12 1008.0 - 0.0 - - 10 - - - -
 
Date/Time
WST
Temp
°C
Wind Pressure Rain since
9am
mm
Weather Cloud Vis
km
Sea
Height
m
Swell
Dir  Spd
kts
Gust
kts
hPa Trend Height
m
Period
s
Dir
17/11:30pm 27.0 WSW 8 12 1008.6 - 0.0 - - 10 - - - -
17/11:00pm 27.1 W 8 11 1008.8 - 0.0 - Partly cloudy 10 - - - -
17/10:30pm 27.2 WSW 10 13 1008.8 - 0.0 - - 10 - - - -

Other Formats:

Comma delimited format used in spreadsheet applications
http://www.bom.gov.au/fwo/IDW60701/IDW60701.94203.axf

JavaScript Object Notation format (JSON) in row-major order
http://www.bom.gov.au/fwo/IDW60701/IDW60701.94203.json